Anton, CO

9:51 PM MDT on August 28, 2016 (GMT -0600)
Anton Coop Fertilizer | | Change Station

Elev 4875 ft 39.74 °N, 103.22 °W | Updated 19 seconds ago

Scattered Clouds
Scattered Clouds
66.0 °F
Feels Like 66.0 °F
N
7.4
Wind Variable Wind from NW
Gusts 9.8 mph

Today
High -- | Low -- °F
--% Chance of Precip.
Yesterday
High -- | Low -- °F
Precip. -- in
Pressure 30.07 in
Visibility 10.0 miles
Clouds Scattered Clouds 11000 ft
Dew Point 54 °F
Humidity 64%
Rainfall 0.14 in
Snow Depth Not available.
6:18 AM 7:29 PM
Waning Crescent, 11% visible
METAR KAKO 290253Z AUTO 30014G22KT 10SM SCT110 21/08 A3023 RMK AO2 LTG DSNT W AND NW SLP182 T02110083 53034
Pressure 30.07 in
Visibility 10.0 miles
Clouds Scattered Clouds 11000 ft
Dew Point 54 °F
Humidity 64%
Rainfall 0.14 in
Snow Depth Not available.
6:18 AM 7:29 PM
Waning Crescent, 11% visible
METAR KAKO 290253Z AUTO 30014G22KT 10SM SCT110 21/08 A3023 RMK AO2 LTG DSNT W AND NW SLP182 T02110083 53034

10-Day Weather Forecast

Almanac

Astronomy

Aug. 28, 2016 Rise Set
Actual Time
Civil Twilight
Nautical Twilight
Astronomical Twilight
Moon
Length of Visible Light
Length of Day
Tomorrow will be .
, % of the Moon is Illuminated

Today's Extremes

State Highs State Lows

Community

WunderPhotos

Upload Photos

1,935,783 photos uploaded!

WunderBlog® & News

Nearby

Air Quality

  Air Quality AQ Index Pollutant
Not available.

Snow Depth

Station Depth Elevation

Earthquake Activity

City Distance Mag. Time & Date
Minimum magnitude displayed is 2.5.

Coastal Water Temperatures

Place Temperature

Stations

Nearby Weather Stations

Station Location Temp. Windchill Dew Point Humidity Wind Precip. Elev Updated Type
                   

Watches & Warnings

There are currently no watches in effect.